sensor_id;sensor_type;location;lat;lon;timestamp;pressure;altitude;pressure_sealevel;temperature;humidity
22031;BME280;11179;52.106;21.024;2023-01-01T00:01:56;100274.97;;;12.43;62.91
22031;BME280;11179;52.106;21.024;2023-01-01T00:04:21;100278.00;;;12.42;63.05
22031;BME280;11179;52.106;21.024;2023-01-01T00:06:47;100276.34;;;12.41;63.12
22031;BME280;11179;52.106;21.024;2023-01-01T00:09:12;100291.44;;;12.38;63.03
22031;BME280;11179;52.106;21.024;2023-01-01T00:11:55;100294.19;;;12.38;63.18
22031;BME280;11179;52.106;21.024;2023-01-01T00:14:21;100293.66;;;12.36;63.07
22031;BME280;11179;52.106;21.024;2023-01-01T00:16:46;100284.00;;;12.28;63.22
22031;BME280;11179;52.106;21.024;2023-01-01T00:19:12;100285.94;;;12.33;63.29
22031;BME280;11179;52.106;21.024;2023-01-01T00:21:37;100271.31;;;12.27;63.25
22031;BME280;11179;52.106;21.024;2023-01-01T00:24:04;100258.41;;;12.28;63.43
22031;BME280;11179;52.106;21.024;2023-01-01T00:26:30;100252.06;;;12.27;63.08
22031;BME280;11179;52.106;21.024;2023-01-01T00:28:56;100274.41;;;12.36;63.16
22031;BME280;11179;52.106;21.024;2023-01-01T00:31:21;100272.97;;;12.28;62.99
22031;BME280;11179;52.106;21.024;2023-01-01T00:33:51;100279.91;;;12.36;62.94
22031;BME280;11179;52.106;21.024;2023-01-01T00:36:17;100281.56;;;12.37;63.00
22031;BME280;11179;52.106;21.024;2023-01-01T00:38:44;100276.88;;;12.38;62.89
22031;BME280;11179;52.106;21.024;2023-01-01T00:41:10;100289.50;;;12.39;62.93
22031;BME280;11179;52.106;21.024;2023-01-01T00:43:36;100279.91;;;12.36;63.01
22031;BME280;11179;52.106;21.024;2023-01-01T00:46:02;100279.91;;;12.36;62.84
22031;BME280;11179;52.106;21.024;2023-01-01T00:48:29;100279.91;;;12.36;62.93
22031;BME280;11179;52.106;21.024;2023-01-01T00:50:54;100268.31;;;12.29;62.95
22031;BME280;11179;52.106;21.024;2023-01-01T00:53:20;100277.69;;;12.33;62.90
22031;BME280;11179;52.106;21.024;2023-01-01T00:55:48;100288.69;;;12.33;62.93
22031;BME280;11179;52.106;21.024;2023-01-01T00:58:14;100284.28;;;12.32;62.87
22031;BME280;11179;52.106;21.024;2023-01-01T01:00:41;100293.94;;;12.35;62.68
22031;BME280;11179;52.106;21.024;2023-01-01T01:03:07;100290.63;;;12.33;62.77
22031;BME280;11179;52.106;21.024;2023-01-01T01:05:32;100275.19;;;12.26;62.93
22031;BME280;11179;52.106;21.024;2023-01-01T01:07:59;100284.56;;;12.31;62.76
22031;BME280;11179;52.106;21.024;2023-01-01T01:10:24;100276.00;;;12.27;62.70
22031;BME280;11179;52.106;21.024;2023-01-01T01:12:53;100272.69;;;12.25;62.85
22031;BME280;11179;52.106;21.024;2023-01-01T01:15:18;100286.47;;;12.25;62.65
22031;BME280;11179;52.106;21.024;2023-01-01T01:17:44;100283.72;;;12.20;62.82
22031;BME280;11179;52.106;21.024;2023-01-01T01:20:10;100291.69;;;12.21;62.70
22031;BME280;11179;52.106;21.024;2023-01-01T01:22:36;100290.59;;;12.27;62.62
22031;BME280;11179;52.106;21.024;2023-01-01T01:25:04;100285.91;;;12.28;62.73
22031;BME280;11179;52.106;21.024;2023-01-01T01:27:29;100282.91;;;12.24;62.81
22031;BME280;11179;52.106;21.024;2023-01-01T01:29:55;100287.84;;;12.22;62.58
22031;BME280;11179;52.106;21.024;2023-01-01T01:32:20;100289.22;;;12.30;62.37
22031;BME280;11179;52.106;21.024;2023-01-01T01:34:46;100299.16;;;12.31;62.46
22031;BME280;11179;52.106;21.024;2023-01-01T01:37:12;100286.47;;;12.30;62.48
22031;BME280;11179;52.106;21.024;2023-01-01T01:39:38;100282.34;;;12.27;62.61
22031;BME280;11179;52.106;21.024;2023-01-01T01:42:04;100274.91;;;12.28;62.53
22031;BME280;11179;52.106;21.024;2023-01-01T01:44:57;100285.09;;;12.27;62.28
22031;BME280;11179;52.106;21.024;2023-01-01T01:47:35;100290.59;;;12.27;62.45
22031;BME280;11179;52.106;21.024;2023-01-01T01:52:57;100290.34;;;12.29;62.25
22031;BME280;11179;52.106;21.024;2023-01-01T01:55:25;100277.41;;;12.24;61.97
22031;BME280;11179;52.106;21.024;2023-01-01T01:57:52;100294.19;;;12.28;62.06
22031;BME280;11179;52.106;21.024;2023-01-01T02:00:17;100279.84;;;12.26;62.21
22031;BME280;11179;52.106;21.024;2023-01-01T02:02:51;100293.91;;;12.30;62.16
22031;BME280;11179;52.106;21.024;2023-01-01T02:05:19;100285.66;;;12.30;62.22
22031;BME280;11179;52.106;21.024;2023-01-01T02:07:44;100281.25;;;12.28;62.17
22031;BME280;11179;52.106;21.024;2023-01-01T02:10:10;100271.06;;;12.24;62.14
22031;BME280;11179;52.106;21.024;2023-01-01T02:12:36;100283.72;;;12.30;62.04
22031;BME280;11179;52.106;21.024;2023-01-01T02:15:01;100260.03;;;12.29;62.01
22031;BME280;11179;52.106;21.024;2023-01-01T02:17:39;100276.56;;;12.39;61.81
22031;BME280;11179;52.106;21.024;2023-01-01T02:20:16;100280.44;;;12.38;61.61
22031;BME280;11179;52.106;21.024;2023-01-01T02:31:36;100291.78;;;12.52;60.93
22031;BME280;11179;52.106;21.024;2023-01-01T02:34:08;100295.34;;;12.52;60.85
22031;BME280;11179;52.106;21.024;2023-01-01T02:36:40;100293.44;;;12.53;60.61
22031;BME280;11179;52.106;21.024;2023-01-01T02:39:08;100289.03;;;12.52;60.65
22031;BME280;11179;52.106;21.024;2023-01-01T02:41:40;100288.19;;;12.51;60.69
22031;BME280;11179;52.106;21.024;2023-01-01T02:44:07;100289.03;;;12.52;60.59
22031;BME280;11179;52.106;21.024;2023-01-01T02:46:34;100275.81;;;12.54;60.45
22031;BME280;11179;52.106;21.024;2023-01-01T02:49:00;100283.25;;;12.58;60.39
22031;BME280;11179;52.106;21.024;2023-01-01T02:54:36;100257.38;;;12.49;60.21
22031;BME280;11179;52.106;21.024;2023-01-01T02:57:15;100276.09;;;12.57;60.33
22031;BME280;11179;52.106;21.024;2023-01-01T03:00:02;100282.44;;;12.58;60.30
22031;BME280;11179;52.106;21.024;2023-01-01T03:11:07;100274.16;;;12.53;60.10
22031;BME280;11179;52.106;21.024;2023-01-01T03:13:47;100277.75;;;12.58;60.01
22031;BME280;11179;52.106;21.024;2023-01-01T03:16:23;100285.75;;;12.60;59.72
22031;BME280;11179;52.106;21.024;2023-01-01T03:18:57;100283.53;;;12.67;59.44
22031;BME280;11179;52.106;21.024;2023-01-01T03:24:40;100269.50;;;12.69;59.25
22031;BME280;11179;52.106;21.024;2023-01-01T03:27:20;100276.38;;;12.71;59.19
22031;BME280;11179;52.106;21.024;2023-01-01T03:29:47;100282.75;;;12.77;58.93
22031;BME280;11179;52.106;21.024;2023-01-01T03:32:19;100266.75;;;12.74;59.14
22031;BME280;11179;52.106;21.024;2023-01-01T03:34:52;100266.47;;;12.75;58.73
22031;BME280;11179;52.106;21.024;2023-01-01T03:37:24;100275.00;;;12.84;58.87
22031;BME280;11179;52.106;21.024;2023-01-01T03:39:54;100277.50;;;12.85;58.48
22031;BME280;11179;52.106;21.024;2023-01-01T03:42:40;100294.84;;;12.96;58.29
22031;BME280;11179;52.106;21.024;2023-01-01T03:45:19;100304.78;;;13.02;57.96
22031;BME280;11179;52.106;21.024;2023-01-01T03:47:46;100286.59;;;13.01;57.96
22031;BME280;11179;52.106;21.024;2023-01-01T03:50:12;100300.91;;;13.08;57.71
22031;BME280;11179;52.106;21.024;2023-01-01T03:53:07;100301.47;;;13.15;57.43
22031;BME280;11179;52.106;21.024;2023-01-01T03:55:41;100292.91;;;13.22;56.88
22031;BME280;11179;52.106;21.024;2023-01-01T04:00:45;100299.22;;;13.32;56.68
22031;BME280;11179;52.106;21.024;2023-01-01T04:03:20;100306.41;;;13.39;56.58
22031;BME280;11179;52.106;21.024;2023-01-01T04:05:47;100303.91;;;13.42;56.46
22031;BME280;11179;52.106;21.024;2023-01-01T04:08:13;100300.03;;;13.48;56.01
22031;BME280;11179;52.106;21.024;2023-01-01T04:10:46;100304.72;;;13.53;55.50
22031;BME280;11179;52.106;21.024;2023-01-01T04:13:12;100303.88;;;13.62;55.44
22031;BME280;11179;52.106;21.024;2023-01-01T04:15:37;100309.13;;;13.64;55.16
22031;BME280;11179;52.106;21.024;2023-01-01T04:18:03;100305.81;;;13.67;54.93
22031;BME280;11179;52.106;21.024;2023-01-01T04:20:28;100297.00;;;13.65;55.17
22031;BME280;11179;52.106;21.024;2023-01-01T04:22:57;100311.06;;;13.68;54.75
22031;BME280;11179;52.106;21.024;2023-01-01T04:25:23;100312.44;;;13.71;54.73
22031;BME280;11179;52.106;21.024;2023-01-01T04:27:49;100308.56;;;13.67;54.44
22031;BME280;11179;52.106;21.024;2023-01-01T04:30:15;100319.88;;;13.71;54.42
22031;BME280;11179;52.106;21.024;2023-01-01T04:32:40;100307.75;;;13.66;54.50
22031;BME280;11179;52.106;21.024;2023-01-01T04:35:06;100330.06;;;13.75;54.02
22031;BME280;11179;52.106;21.024;2023-01-01T04:37:34;100315.16;;;13.76;54.14
22031;BME280;11179;52.106;21.024;2023-01-01T04:40:00;100326.75;;;13.73;54.15
22031;BME280;11179;52.106;21.024;2023-01-01T04:42:25;100336.13;;;13.77;53.96
22031;BME280;11179;52.106;21.024;2023-01-01T04:44:51;100335.84;;;13.79;53.77
22031;BME280;11179;52.106;21.024;2023-01-01T04:47:16;100321.78;;;13.75;53.82
22031;BME280;11179;52.106;21.024;2023-01-01T04:49:41;100324.81;;;13.74;53.96
22031;BME280;11179;52.106;21.024;2023-01-01T04:52:06;100339.16;;;13.76;53.94
22031;BME280;11179;52.106;21.024;2023-01-01T04:54:32;100325.41;;;13.71;54.04
22031;BME280;11179;52.106;21.024;2023-01-01T04:56:57;100340.03;;;13.71;54.02
22031;BME280;11179;52.106;21.024;2023-01-01T04:59:22;100318.22;;;13.64;54.07
22031;BME280;11179;52.106;21.024;2023-01-01T05:01:48;100337.81;;;13.68;53.89
22031;BME280;11179;52.106;21.024;2023-01-01T05:04:14;100350.47;;;13.74;53.78
22031;BME280;11179;52.106;21.024;2023-01-01T05:06:40;100349.66;;;13.74;53.81
22031;BME280;11179;52.106;21.024;2023-01-01T05:09:05;100340.03;;;13.66;53.68
22031;BME280;11179;52.106;21.024;2023-01-01T05:11:30;100352.41;;;13.74;53.47
22031;BME280;11179;52.106;21.024;2023-01-01T05:13:58;100340.00;;;13.76;53.45
22031;BME280;11179;52.106;21.024;2023-01-01T05:16:26;100349.66;;;13.79;53.22
22031;BME280;11179;52.106;21.024;2023-01-01T05:18:52;100349.09;;;13.77;53.31
22031;BME280;11179;52.106;21.024;2023-01-01T05:21:22;100342.47;;;13.78;53.33
22031;BME280;11179;52.106;21.024;2023-01-01T05:23:48;100350.22;;;13.76;53.25
22031;BME280;11179;52.106;21.024;2023-01-01T05:26:19;100341.66;;;13.72;53.24
22031;BME280;11179;52.106;21.024;2023-01-01T05:28:46;100348.81;;;13.73;53.18
22031;BME280;11179;52.106;21.024;2023-01-01T05:31:13;100345.56;;;13.71;53.25
22031;BME280;11179;52.106;21.024;2023-01-01T05:33:39;100348.84;;;13.68;53.32
22031;BME280;11179;52.106;21.024;2023-01-01T05:36:06;100339.19;;;13.60;53.27
22031;BME280;11179;52.106;21.024;2023-01-01T05:38:32;100358.78;;;13.64;53.41
22031;BME280;11179;52.106;21.024;2023-01-01T05:40:57;100353.81;;;13.61;53.25
22031;BME280;11179;52.106;21.024;2023-01-01T05:43:23;100352.72;;;13.62;53.52
22031;BME280;11179;52.106;21.024;2023-01-01T05:45:48;100354.09;;;13.59;53.36
22031;BME280;11179;52.106;21.024;2023-01-01T05:48:14;100367.63;;;13.61;53.30
22031;BME280;11179;52.106;21.024;2023-01-01T05:50:39;100356.03;;;13.59;53.22
22031;BME280;11179;52.106;21.024;2023-01-01T05:53:04;100364.06;;;13.55;53.35
22031;BME280;11179;52.106;21.024;2023-01-01T05:55:30;100361.25;;;13.50;53.19
22031;BME280;11179;52.106;21.024;2023-01-01T05:57:55;100378.69;;;13.56;53.17
22031;BME280;11179;52.106;21.024;2023-01-01T06:00:21;100378.91;;;13.54;53.26
22031;BME280;11179;52.106;21.024;2023-01-01T06:02:46;100380.59;;;13.55;53.43
22031;BME280;11179;52.106;21.024;2023-01-01T06:05:14;100385.81;;;13.52;53.33
22031;BME280;11179;52.106;21.024;2023-01-01T06:07:39;100393.53;;;13.50;53.30
22031;BME280;11179;52.106;21.024;2023-01-01T06:10:04;100387.72;;;13.46;53.36
22031;BME280;11179;52.106;21.024;2023-01-01T06:12:30;100383.34;;;13.40;53.34
22031;BME280;11179;52.106;21.024;2023-01-01T06:14:56;100388.03;;;13.40;53.43
22031;BME280;11179;52.106;21.024;2023-01-01T06:17:21;100395.75;;;13.38;53.36
22031;BME280;11179;52.106;21.024;2023-01-01T06:19:46;100389.69;;;13.30;53.41
22031;BME280;11179;52.106;21.024;2023-01-01T06:22:12;100399.59;;;13.31;53.57
22031;BME280;11179;52.106;21.024;2023-01-01T06:24:38;100400.16;;;13.28;53.52
22031;BME280;11179;52.106;21.024;2023-01-01T06:27:03;100409.25;;;13.24;53.53
22031;BME280;11179;52.106;21.024;2023-01-01T06:29:28;100412.31;;;13.17;53.65
22031;BME280;11179;52.106;21.024;2023-01-01T06:31:53;100411.44;;;13.12;53.68
22031;BME280;11179;52.106;21.024;2023-01-01T06:34:19;100416.41;;;13.10;53.73
22031;BME280;11179;52.106;21.024;2023-01-01T06:36:45;100409.53;;;13.02;53.75
22031;BME280;11179;52.106;21.024;2023-01-01T06:39:10;100418.34;;;13.04;53.86
22031;BME280;11179;52.106;21.024;2023-01-01T06:41:36;100415.56;;;12.94;53.92
22031;BME280;11179;52.106;21.024;2023-01-01T06:44:01;100411.41;;;12.91;54.08
22031;BME280;11179;52.106;21.024;2023-01-01T06:46:31;100421.91;;;12.89;54.30
22031;BME280;11179;52.106;21.024;2023-01-01T06:49:06;100427.38;;;12.84;54.10
22031;BME280;11179;52.106;21.024;2023-01-01T06:51:35;100419.94;;;12.85;54.27
22031;BME280;11179;52.106;21.024;2023-01-01T06:54:02;100421.59;;;12.81;54.25
22031;BME280;11179;52.106;21.024;2023-01-01T06:56:28;100416.09;;;12.86;54.36
22031;BME280;11179;52.106;21.024;2023-01-01T06:58:55;100417.22;;;12.90;54.11
22031;BME280;11179;52.106;21.024;2023-01-01T07:01:23;100416.41;;;12.89;54.20
22031;BME280;11179;52.106;21.024;2023-01-01T07:04:02;100421.34;;;12.92;53.87
22031;BME280;11179;52.106;21.024;2023-01-01T07:06:29;100427.13;;;12.96;53.88
22031;BME280;11179;52.106;21.024;2023-01-01T07:08:55;100421.09;;;12.99;53.89
22031;BME280;11179;52.106;21.024;2023-01-01T07:11:21;100431.56;;;13.02;53.57
22031;BME280;11179;52.106;21.024;2023-01-01T07:13:46;100421.38;;;13.13;53.18
22031;BME280;11179;52.106;21.024;2023-01-01T07:16:12;100420.00;;;13.25;53.22
22031;BME280;11179;52.106;21.024;2023-01-01T07:18:38;100416.16;;;13.26;52.77
22031;BME280;11179;52.106;21.024;2023-01-01T07:21:04;100409.25;;;13.39;52.64
22031;BME280;11179;52.106;21.024;2023-01-01T07:23:32;100421.94;;;13.45;52.59
22031;BME280;11179;52.106;21.024;2023-01-01T07:25:58;100421.38;;;13.48;52.20
22031;BME280;11179;52.106;21.024;2023-01-01T07:28:24;100426.66;;;13.60;52.17
22031;BME280;11179;52.106;21.024;2023-01-01T07:30:50;100441.00;;;13.72;51.72
22031;BME280;11179;52.106;21.024;2023-01-01T07:33:18;100431.06;;;13.81;51.29
22031;BME280;11179;52.106;21.024;2023-01-01T07:35:44;100439.91;;;13.83;51.19
22031;BME280;11179;52.106;21.024;2023-01-01T07:38:10;100437.66;;;13.90;51.03
22031;BME280;11179;52.106;21.024;2023-01-01T07:40:35;100445.41;;;13.93;50.95
22031;BME280;11179;52.106;21.024;2023-01-01T07:43:01;100454.47;;;13.99;50.75
22031;BME280;11179;52.106;21.024;2023-01-01T07:45:26;100448.69;;;14.06;50.43
22031;BME280;11179;52.106;21.024;2023-01-01T07:47:56;100466.31;;;14.20;50.22
22031;BME280;11179;52.106;21.024;2023-01-01T07:50:24;100469.88;;;14.25;50.03
22031;BME280;11179;52.106;21.024;2023-01-01T07:52:49;100473.47;;;14.31;49.75
22031;BME280;11179;52.106;21.024;2023-01-01T07:55:20;100470.44;;;14.37;49.79
22031;BME280;11179;52.106;21.024;2023-01-01T07:57:46;100469.56;;;14.47;49.53
22031;BME280;11179;52.106;21.024;2023-01-01T08:00:15;100466.75;;;14.52;49.41
22031;BME280;11179;52.106;21.024;2023-01-01T08:02:40;100472.28;;;14.57;49.32
22031;BME280;11179;52.106;21.024;2023-01-01T08:05:06;100484.97;;;14.68;49.07
22031;BME280;11179;52.106;21.024;2023-01-01T08:07:32;100479.72;;;14.72;48.82
22031;BME280;11179;52.106;21.024;2023-01-01T08:09:57;100485.22;;;14.77;49.01
22031;BME280;11179;52.106;21.024;2023-01-01T08:12:23;100493.47;;;14.82;48.36
22031;BME280;11179;52.106;21.024;2023-01-01T08:14:48;100493.47;;;14.87;48.35
22031;BME280;11179;52.106;21.024;2023-01-01T08:17:14;100500.31;;;14.95;48.15
22031;BME280;11179;52.106;21.024;2023-01-01T08:19:39;100484.28;;;14.97;47.84
22031;BME280;11179;52.106;21.024;2023-01-01T08:22:04;100494.22;;;15.03;47.60
22031;BME280;11179;52.106;21.024;2023-01-01T08:24:30;100493.63;;;15.06;47.92
22031;BME280;11179;52.106;21.024;2023-01-01T08:26:55;100494.22;;;15.03;47.56
22031;BME280;11179;52.106;21.024;2023-01-01T08:29:20;100493.31;;;15.13;47.75
22031;BME280;11179;52.106;21.024;2023-01-01T08:31:46;100498.53;;;15.19;47.44
22031;BME280;11179;52.106;21.024;2023-01-01T08:34:11;100497.69;;;15.19;47.62
22031;BME280;11179;52.106;21.024;2023-01-01T08:36:36;100501.81;;;15.26;47.71
22031;BME280;11179;52.106;21.024;2023-01-01T08:39:03;100502.91;;;15.30;47.42
22031;BME280;11179;52.106;21.024;2023-01-01T08:41:28;100509.50;;;15.34;47.37
22031;BME280;11179;52.106;21.024;2023-01-01T08:43:54;100501.75;;;15.36;47.21
22031;BME280;11179;52.106;21.024;2023-01-01T08:46:19;100511.91;;;15.46;46.70
22031;BME280;11179;52.106;21.024;2023-01-01T08:48:44;100524.31;;;15.54;46.79
22031;BME280;11179;52.106;21.024;2023-01-01T08:51:10;100518.72;;;15.59;46.82
22031;BME280;11179;52.106;21.024;2023-01-01T08:53:35;100522.03;;;15.61;46.67
22031;BME280;11179;52.106;21.024;2023-01-01T08:56:07;100521.50;;;15.64;46.73
22031;BME280;11179;52.106;21.024;2023-01-01T08:58:35;100526.47;;;15.67;46.88
22031;BME280;11179;52.106;21.024;2023-01-01T09:01:01;100525.91;;;15.70;46.85
22031;BME280;11179;52.106;21.024;2023-01-01T09:03:27;100535.31;;;15.69;46.75
22031;BME280;11179;52.106;21.024;2023-01-01T09:05:52;100526.47;;;15.67;46.48
22031;BME280;11179;52.106;21.024;2023-01-01T09:08:19;100538.56;;;15.81;46.51
22031;BME280;11179;52.106;21.024;2023-01-01T09:10:45;100528.78;;;15.89;46.09
22031;BME280;11179;52.106;21.024;2023-01-01T09:13:11;100537.00;;;15.99;45.80
22031;BME280;11179;52.106;21.024;2023-01-01T09:15:38;100538.03;;;16.08;45.71
22031;BME280;11179;52.106;21.024;2023-01-01T09:18:03;100537.13;;;16.17;45.19
22031;BME280;11179;52.106;21.024;2023-01-01T09:20:29;100545.91;;;16.25;45.12
22031;BME280;11179;52.106;21.024;2023-01-01T09:22:54;100539.75;;;16.33;45.17
22031;BME280;11179;52.106;21.024;2023-01-01T09:25:20;100534.13;;;16.38;44.74
22031;BME280;11179;52.106;21.024;2023-01-01T09:27:45;100536.28;;;16.46;44.55
22031;BME280;11179;52.106;21.024;2023-01-01T09:30:11;100538.41;;;16.54;44.52
22031;BME280;11179;52.106;21.024;2023-01-01T09:32:36;100530.63;;;16.56;44.39
22031;BME280;11179;52.106;21.024;2023-01-01T09:35:02;100536.69;;;16.63;44.23
22031;BME280;11179;52.106;21.024;2023-01-01T09:37:27;100537.69;;;16.72;44.05
22031;BME280;11179;52.106;21.024;2023-01-01T09:39:52;100538.13;;;16.79;43.99
22031;BME280;11179;52.106;21.024;2023-01-01T09:42:44;100548.50;;;16.93;43.36
22031;BME280;11179;52.106;21.024;2023-01-01T09:45:20;100545.94;;;17.01;43.25
22031;BME280;11179;52.106;21.024;2023-01-01T09:47:50;100535.50;;;17.12;42.85
22031;BME280;11179;52.106;21.024;2023-01-01T09:50:24;100538.72;;;17.19;43.03
22031;BME280;11179;52.106;21.024;2023-01-01T09:52:56;100546.94;;;17.29;43.48
22031;BME280;11179;52.106;21.024;2023-01-01T09:55:28;100529.91;;;17.36;42.65
22031;BME280;11179;52.106;21.024;2023-01-01T09:57:55;100545.84;;;17.49;42.56
22031;BME280;11179;52.106;21.024;2023-01-01T10:00:21;100530.47;;;17.56;42.63
22031;BME280;11179;52.106;21.024;2023-01-01T10:06:23;100533.44;;;17.79;42.12
22031;BME280;11179;52.106;21.024;2023-01-01T10:09:39;100540.06;;;17.83;41.86
22031;BME280;11179;52.106;21.024;2023-01-01T10:12:21;100536.66;;;17.86;41.92
22031;BME280;11179;52.106;21.024;2023-01-01T10:18:00;100531.03;;;17.91;41.18
22031;BME280;11179;52.106;21.024;2023-01-01T10:20:39;100525.16;;;17.92;41.06
22031;BME280;11179;52.106;21.024;2023-01-01T10:23:16;100529.50;;;17.99;40.68
22031;BME280;11179;52.106;21.024;2023-01-01T10:25:44;100532.50;;;18.02;40.89
22031;BME280;11179;52.106;21.024;2023-01-01T10:30:40;100528.06;;;18.01;40.46
22031;BME280;11179;52.106;21.024;2023-01-01T10:33:10;100523.34;;;18.02;40.58
22031;BME280;11179;52.106;21.024;2023-01-01T10:35:43;100518.19;;;17.95;40.28
22031;BME280;11179;52.106;21.024;2023-01-01T10:38:19;100511.34;;;17.87;40.29
22031;BME280;11179;52.106;21.024;2023-01-01T10:40:46;100510.81;;;17.85;40.38
22031;BME280;11179;52.106;21.024;2023-01-01T10:43:11;100500.72;;;17.76;40.40
22031;BME280;11179;52.106;21.024;2023-01-01T10:45:49;100503.50;;;17.76;39.94
22031;BME280;11179;52.106;21.024;2023-01-01T10:48:25;100494.03;;;17.77;40.16
22031;BME280;11179;52.106;21.024;2023-01-01T10:51:04;100500.34;;;17.82;39.78
22031;BME280;11179;52.106;21.024;2023-01-01T10:58:46;100485.22;;;17.88;39.21
22031;BME280;11179;52.106;21.024;2023-01-01T11:01:29;100490.09;;;17.97;39.04
22031;BME280;11179;52.106;21.024;2023-01-01T11:03:59;100495.31;;;17.98;38.88
22031;BME280;11179;52.106;21.024;2023-01-01T11:06:34;100485.88;;;17.99;38.87
22031;BME280;11179;52.106;21.024;2023-01-01T11:09:03;100483.72;;;17.96;38.74
22031;BME280;11179;52.106;21.024;2023-01-01T11:11:58;100490.69;;;17.93;38.59
22031;BME280;11179;52.106;21.024;2023-01-01T11:14:26;100477.34;;;17.96;38.65
22031;BME280;11179;52.106;21.024;2023-01-01T11:16:53;100478.47;;;17.95;38.45
22031;BME280;11179;52.106;21.024;2023-01-01T11:19:36;100475.06;;;17.98;38.35
22031;BME280;11179;52.106;21.024;2023-01-01T11:22:03;100480.94;;;17.96;38.13
22031;BME280;11179;52.106;21.024;2023-01-01T11:24:31;100478.34;;;18.00;38.38
22031;BME280;11179;52.106;21.024;2023-01-01T11:27:35;100484.66;;;18.05;38.31
22031;BME280;11179;52.106;21.024;2023-01-01T11:30:26;100487.13;;;18.07;37.97
22031;BME280;11179;52.106;21.024;2023-01-01T11:32:59;100479.63;;;18.07;37.80
22031;BME280;11179;52.106;21.024;2023-01-01T11:35:28;100482.09;;;18.09;37.90
22031;BME280;11179;52.106;21.024;2023-01-01T11:37:55;100486.84;;;18.08;38.29
22031;BME280;11179;52.106;21.024;2023-01-01T11:40:26;100480.22;;;18.04;38.08
22031;BME280;11179;52.106;21.024;2023-01-01T11:42:58;100473.25;;;18.07;37.82
22031;BME280;11179;52.106;21.024;2023-01-01T11:45:27;100492.09;;;18.10;37.85
22031;BME280;11179;52.106;21.024;2023-01-01T11:48:01;100485.19;;;18.07;38.07
22031;BME280;11179;52.106;21.024;2023-01-01T11:50:41;100485.72;;;18.09;37.81
22031;BME280;11179;52.106;21.024;2023-01-01T11:53:25;100474.06;;;18.07;37.69
22031;BME280;11179;52.106;21.024;2023-01-01T11:58:31;100483.31;;;18.03;38.22
22031;BME280;11179;52.106;21.024;2023-01-01T12:03:48;100484.63;;;17.91;38.67
22031;BME280;11179;52.106;21.024;2023-01-01T12:11:47;100474.00;;;17.80;38.63
22031;BME280;11179;52.106;21.024;2023-01-01T12:17:19;100479.72;;;17.70;39.14
22031;BME280;11179;52.106;21.024;2023-01-01T12:19:55;100475.97;;;17.61;39.55
22031;BME280;11179;52.106;21.024;2023-01-01T12:22:22;100493.75;;;17.60;39.78
22031;BME280;11179;52.106;21.024;2023-01-01T12:24:48;100479.97;;;17.54;39.82
22031;BME280;11179;52.106;21.024;2023-01-01T12:27:16;100485.81;;;17.53;40.22
22031;BME280;11179;52.106;21.024;2023-01-01T12:35:01;100503.34;;;17.48;40.43
22031;BME280;11179;52.106;21.024;2023-01-01T12:37:48;100495.00;;;17.48;40.61
22031;BME280;11179;52.106;21.024;2023-01-01T12:40:29;100503.63;;;17.47;40.60
22031;BME280;11179;52.106;21.024;2023-01-01T12:43:18;100500.66;;;17.43;40.78
22031;BME280;11179;52.106;21.024;2023-01-01T12:51:39;100515.13;;;17.40;40.78
22031;BME280;11179;52.106;21.024;2023-01-01T12:56:56;100519.69;;;17.31;40.92
22031;BME280;11179;52.106;21.024;2023-01-01T12:59:31;100532.16;;;17.34;41.09
22031;BME280;11179;52.106;21.024;2023-01-01T13:01:59;100524.75;;;17.29;40.92
22031;BME280;11179;52.106;21.024;2023-01-01T13:04:26;100526.41;;;17.30;40.52
22031;BME280;11179;52.106;21.024;2023-01-01T13:06:59;100522.56;;;17.26;40.47
22031;BME280;11179;52.106;21.024;2023-01-01T13:09:33;100523.97;;;17.23;40.58
22031;BME280;11179;52.106;21.024;2023-01-01T13:12:04;100534.84;;;17.20;40.36
22031;BME280;11179;52.106;21.024;2023-01-01T13:14:38;100532.44;;;17.13;40.12
22031;BME280;11179;52.106;21.024;2023-01-01T13:17:03;100534.16;;;17.09;40.43
22031;BME280;11179;52.106;21.024;2023-01-01T13:19:33;100520.88;;;17.06;40.49
22031;BME280;11179;52.106;21.024;2023-01-01T13:39:37;100525.34;;;16.83;40.83
22031;BME280;11179;52.106;21.024;2023-01-01T13:41:44;100524.81;;;16.81;40.88
22031;BME280;11179;52.106;21.024;2023-01-01T13:44:16;100531.53;;;16.75;40.99
22031;BME280;11179;52.106;21.024;2023-01-01T13:54:59;100534.59;;;16.50;41.55
22031;BME280;11179;52.106;21.024;2023-01-01T14:03:12;100563.31;;;16.30;41.95
22031;BME280;11179;52.106;21.024;2023-01-01T14:05:45;100555.66;;;16.22;42.01
22031;BME280;11179;52.106;21.024;2023-01-01T14:08:33;100567.59;;;16.17;42.24
22031;BME280;11179;52.106;21.024;2023-01-01T14:11:00;100566.56;;;16.08;42.40
22031;BME280;11179;52.106;21.024;2023-01-01T14:13:28;100567.78;;;15.97;42.65
22031;BME280;11179;52.106;21.024;2023-01-01T14:15:59;100582.47;;;15.93;43.07
22031;BME280;11179;52.106;21.024;2023-01-01T14:18:39;100589.44;;;15.85;43.15
22031;BME280;11179;52.106;21.024;2023-01-01T14:21:14;100598.38;;;15.72;43.51
22031;BME280;11179;52.106;21.024;2023-01-01T14:23:43;100605.91;;;15.66;43.75
22031;BME280;11179;52.106;21.024;2023-01-01T14:26:14;100608.97;;;15.60;43.96
22031;BME280;11179;52.106;21.024;2023-01-01T14:28:41;100609.56;;;15.52;44.00
22031;BME280;11179;52.106;21.024;2023-01-01T14:31:19;100602.41;;;15.45;44.27
22031;BME280;11179;52.106;21.024;2023-01-01T14:33:46;100613.19;;;15.47;44.62